Time;durP1;ratioP1;P1;durP2;ratioP2;P2;SDS_P1;SDS_P2;PMS_P1;PMS_P2;Temp;Humidity;BMP_temperature;BMP_pressure;BME280_temperature;BME280_humidity;BME280_pressure;Samples;Min_cycle;Max_cycle;Signal;HPM_P1;HPM_P2
2021/05/13 00:00:49;;;;;;;12.95;10.50;;;14.20;99.90;;;;;;4929583;28;20052;-65
2021/05/13 00:03:16;;;;;;;12.43;10.90;;;14.20;99.90;;;;;;4922919;29;20102;-65
2021/05/13 00:05:43;;;;;;;12.40;10.82;;;14.20;99.90;;;;;;4931447;29;20668;-65
2021/05/13 00:08:10;;;;;;;11.70;10.20;;;14.20;99.90;;;;;;4928334;29;20031;-65
2021/05/13 00:10:37;;;;;;;12.68;10.73;;;14.10;99.90;;;;;;4921206;29;20040;-65
2021/05/13 00:13:06;;;;;;;12.57;10.85;;;14.10;99.90;;;;;;4934075;28;20151;-65
2021/05/13 00:15:37;;;;;;;12.10;10.07;;;14.00;99.90;;;;;;4925043;29;20369;-65
2021/05/13 00:18:04;;;;;;;14.65;11.50;;;14.00;99.90;;;;;;4925955;29;20138;-65
2021/05/13 00:20:35;;;;;;;13.05;11.70;;;13.90;99.90;;;;;;4919993;29;20147;-65
2021/05/13 00:23:02;;;;;;;13.00;11.50;;;13.90;99.90;;;;;;4935321;28;20051;-65
2021/05/13 00:25:29;;;;;;;16.45;13.00;;;13.90;99.90;;;;;;4928603;29;20047;-65
2021/05/13 00:27:56;;;;;;;12.43;11.13;;;13.90;99.90;;;;;;4929610;29;20422;-65
2021/05/13 00:30:24;;;;;;;12.98;11.27;;;13.80;99.90;;;;;;4907812;29;20043;-65
2021/05/13 00:32:51;;;;;;;15.80;11.88;;;13.80;99.90;;;;;;4920318;29;20048;-65
2021/05/13 00:35:20;;;;;;;22.52;11.65;;;13.70;99.90;;;;;;4924807;29;20793;-65
2021/05/13 00:37:47;;;;;;;21.83;13.55;;;13.70;99.90;;;;;;4923529;29;20048;-65
2021/05/13 00:40:18;;;;;;;13.38;10.85;;;13.60;99.90;;;;;;4929725;29;20047;-66
2021/05/13 00:42:46;;;;;;;17.50;10.93;;;13.50;99.90;;;;;;4926268;28;20043;-65
2021/05/13 00:45:14;;;;;;;14.65;13.07;;;13.60;99.90;;;;;;4926089;29;20161;-65
2021/05/13 00:47:48;;;;;;;18.30;13.90;;;13.50;99.90;;;;;;4926944;29;20051;-65
2021/05/13 00:50:16;;;;;;;13.77;12.10;;;13.40;99.90;;;;;;4923405;29;20053;-65
2021/05/13 00:52:43;;;;;;;19.70;13.40;;;13.40;99.90;;;;;;4927541;29;20047;-65
2021/05/13 00:55:11;;;;;;;17.02;14.00;;;13.40;99.90;;;;;;4929955;29;20059;-65
2021/05/13 00:57:42;;;;;;;17.20;13.20;;;13.30;99.90;;;;;;4927161;29;20374;-65
2021/05/13 01:00:31;;;;;;;17.55;13.30;;;13.30;99.90;;;;;;4924205;29;20100;-65
2021/05/13 01:02:57;;;;;;;14.70;12.75;;;13.30;99.90;;;;;;4925599;28;20067;-65
2021/05/13 01:05:25;;;;;;;15.93;13.15;;;13.20;99.90;;;;;;4923459;29;20098;-65
2021/05/13 01:07:52;;;;;;;13.05;11.57;;;13.20;99.90;;;;;;4918826;29;20094;-65
2021/05/13 01:10:19;;;;;;;20.13;13.35;;;13.20;99.90;;;;;;4923498;28;20071;-65
2021/05/13 01:12:47;;;;;;;15.50;12.25;;;13.20;99.90;;;;;;4921361;29;20888;-65
2021/05/13 01:15:24;;;;;;;15.43;11.90;;;13.10;99.90;;;;;;4926766;29;20070;-65
2021/05/13 01:18:01;;;;;;;14.43;12.32;;;13.10;99.90;;;;;;4924983;29;20056;-65
2021/05/13 01:20:28;;;;;;;16.58;11.05;;;13.10;99.90;;;;;;4912525;29;20126;-65
2021/05/13 01:22:57;;;;;;;13.60;11.98;;;13.10;99.90;;;;;;4923135;29;20385;-65
2021/05/13 01:25:25;;;;;;;17.77;12.38;;;13.00;99.90;;;;;;4926972;29;20058;-65
2021/05/13 01:28:00;;;;;;;15.63;12.82;;;13.00;99.90;;;;;;4919967;29;20043;-65
2021/05/13 01:30:28;;;;;;;15.52;11.40;;;13.00;99.90;;;;;;4921743;28;20051;-65
2021/05/13 01:33:00;;;;;;;14.85;11.95;;;13.00;99.90;;;;;;4920559;29;20830;-65
2021/05/13 01:35:27;;;;;;;13.10;11.80;;;13.00;99.90;;;;;;4922157;29;20051;-65
2021/05/13 01:38:27;;;;;;;13.50;11.57;;;13.00;99.90;;;;;;4922514;29;20036;-65
2021/05/13 01:40:58;;;;;;;18.83;13.30;;;12.90;99.90;;;;;;4911020;29;20047;-65
2021/05/13 01:43:27;;;;;;;15.15;11.55;;;12.90;99.90;;;;;;4923340;29;20474;-65
2021/05/13 01:45:54;;;;;;;17.13;13.05;;;12.90;99.90;;;;;;4926171;29;20103;-65
2021/05/13 01:48:22;;;;;;;13.20;10.98;;;12.90;99.90;;;;;;4921427;28;20048;-65
2021/05/13 01:50:50;;;;;;;16.23;12.35;;;12.90;99.90;;;;;;4905981;29;20043;-65
2021/05/13 01:53:18;;;;;;;12.60;11.30;;;12.90;99.90;;;;;;4927681;29;20046;-65
2021/05/13 01:55:45;;;;;;;12.75;10.13;;;12.90;99.90;;;;;;4924218;29;20044;-65
2021/05/13 01:58:12;;;;;;;15.93;13.10;;;12.90;99.90;;;;;;4921486;29;20527;-65
2021/05/13 02:00:44;;;;;;;14.02;11.52;;;12.90;99.90;;;;;;4921090;29;20044;-65
2021/05/13 02:03:12;;;;;;;12.55;10.68;;;12.90;99.90;;;;;;4921842;29;20040;-65
2021/05/13 02:05:39;;;;;;;12.70;11.15;;;12.90;99.90;;;;;;4926563;29;20514;-65
2021/05/13 02:08:06;;;;;;;12.82;11.55;;;12.90;99.90;;;;;;4922549;29;20063;-65
2021/05/13 02:10:33;;;;;;;15.90;11.85;;;12.90;99.90;;;;;;4920793;29;20812;-65
2021/05/13 02:13:00;;;;;;;14.60;10.95;;;12.90;99.90;;;;;;4920634;29;20602;-65
2021/05/13 02:15:27;;;;;;;15.90;10.68;;;12.90;99.90;;;;;;4921914;29;20051;-65
2021/05/13 02:17:54;;;;;;;14.60;10.98;;;12.90;99.90;;;;;;4922536;29;20095;-65
2021/05/13 02:20:23;;;;;;;10.98;9.82;;;12.90;99.90;;;;;;4917837;29;20521;-65
2021/05/13 02:22:52;;;;;;;14.73;9.98;;;12.90;99.90;;;;;;4918176;29;20047;-65
2021/05/13 02:25:19;;;;;;;16.20;10.95;;;12.90;99.90;;;;;;4928661;29;20040;-65
2021/05/13 02:27:46;;;;;;;22.52;11.43;;;13.00;99.90;;;;;;4922005;28;20081;-65
2021/05/13 02:30:14;;;;;;;11.93;10.05;;;13.00;99.90;;;;;;4918751;29;20679;-65
2021/05/13 02:32:41;;;;;;;13.75;10.05;;;13.00;99.90;;;;;;4915290;29;20047;-65
2021/05/13 02:35:09;;;;;;;10.88;8.48;;;13.00;99.90;;;;;;4921979;29;20055;-65
2021/05/13 02:37:37;;;;;;;16.25;9.25;;;13.20;99.90;;;;;;4921415;29;20040;-65
2021/05/13 02:40:05;;;;;;;12.20;11.05;;;13.10;99.90;;;;;;4925267;29;20063;-65
2021/05/13 02:42:33;;;;;;;12.18;9.23;;;13.10;99.90;;;;;;4917914;29;21708;-65
2021/05/13 02:45:00;;;;;;;11.38;8.95;;;13.10;99.90;;;;;;4918473;29;20096;-65
2021/05/13 02:47:27;;;;;;;12.02;10.43;;;13.10;99.90;;;;;;4919845;29;20051;-65
2021/05/13 02:49:54;;;;;;;14.75;9.93;;;13.10;99.90;;;;;;4922055;29;20513;-65
2021/05/13 02:52:21;;;;;;;11.35;8.88;;;13.10;99.90;;;;;;4919913;29;20106;-65
2021/05/13 02:54:48;;;;;;;20.80;10.00;;;13.10;99.90;;;;;;4920609;29;20063;-65
2021/05/13 02:57:15;;;;;;;12.23;10.55;;;13.10;99.90;;;;;;4919385;29;20039;-65
2021/05/13 02:59:45;;;;;;;9.75;8.82;;;13.10;99.90;;;;;;4922643;28;20143;-65
2021/05/13 03:02:13;;;;;;;13.68;10.32;;;13.10;99.90;;;;;;4923564;29;20059;-65
2021/05/13 03:04:41;;;;;;;22.40;10.45;;;13.10;99.90;;;;;;4916313;29;20111;-65
2021/05/13 03:07:10;;;;;;;12.00;8.50;;;13.10;99.90;;;;;;4918823;29;20044;-65
2021/05/13 03:09:40;;;;;;;11.85;9.05;;;13.10;99.90;;;;;;4915292;29;20557;-65
2021/05/13 03:12:07;;;;;;;11.68;9.85;;;13.00;99.90;;;;;;4926319;29;20059;-65
2021/05/13 03:14:36;;;;;;;12.55;9.40;;;13.00;99.90;;;;;;4916495;29;20506;-65
2021/05/13 03:17:03;;;;;;;10.32;8.52;;;13.00;99.90;;;;;;4923113;29;20047;-65
2021/05/13 03:19:39;;;;;;;10.80;9.60;;;13.00;99.90;;;;;;4928302;29;20580;-65
2021/05/13 03:22:09;;;;;;;10.65;9.02;;;13.00;99.90;;;;;;4922319;29;20146;-65
2021/05/13 03:25:26;;;;;;;;;;;13.00;99.90;;;;;;4920159;29;20047;-65
2021/05/13 03:29:54;;;;;;;10.07;8.63;;;13.00;99.90;;;;;;4917527;29;20079;-65
2021/05/13 03:32:22;;;;;;;12.18;8.23;;;13.00;99.90;;;;;;4916265;29;20087;-65
2021/05/13 03:34:49;;;;;;;13.60;8.70;;;13.00;99.90;;;;;;4928864;29;20724;-65
2021/05/13 03:37:19;;;;;;;11.05;9.18;;;13.00;99.90;;;;;;4920043;29;20036;-64
2021/05/13 03:39:46;;;;;;;12.93;9.57;;;13.00;99.90;;;;;;4923984;29;20058;-65
2021/05/13 03:42:13;;;;;;;19.50;11.63;;;13.00;99.90;;;;;;4924189;29;20675;-65
2021/05/13 03:44:40;;;;;;;16.40;11.00;;;13.00;99.90;;;;;;4920794;29;20036;-65
2021/05/13 03:47:07;;;;;;;19.50;12.13;;;13.00;99.90;;;;;;4922574;29;20044;-65
2021/05/13 03:49:38;;;;;;;17.73;12.38;;;13.00;99.90;;;;;;4921401;29;20047;-65
2021/05/13 03:52:05;;;;;;;15.10;11.82;;;13.00;99.90;;;;;;4920714;29;20464;-65
2021/05/13 03:54:32;;;;;;;14.70;11.65;;;12.90;99.90;;;;;;4923059;29;20403;-65
2021/05/13 03:57:00;;;;;;;15.05;10.63;;;12.90;99.90;;;;;;4919009;29;20048;-65
2021/05/13 03:59:28;;;;;;;18.25;11.00;;;12.90;99.90;;;;;;4929398;29;20123;-65
2021/05/13 04:04:31;;;;;;;20.05;11.98;;;12.90;99.90;;;;;;4923797;29;20123;-65
2021/05/13 04:06:58;;;;;;;14.70;11.55;;;12.90;99.90;;;;;;4923885;29;20103;-65
2021/05/13 04:09:26;;;;;;;16.02;9.93;;;13.00;99.90;;;;;;4926342;29;20078;-65
2021/05/13 04:11:53;;;;;;;11.00;9.88;;;13.00;99.90;;;;;;4924741;29;20433;-65
2021/05/13 04:14:21;;;;;;;14.40;10.13;;;13.00;99.90;;;;;;4919065;29;20040;-65
2021/05/13 04:16:55;;;;;;;10.45;8.60;;;13.00;99.90;;;;;;4927761;29;20111;-65
2021/05/13 04:19:23;;;;;;;11.30;9.25;;;13.10;99.90;;;;;;4921498;29;20091;-64
2021/05/13 04:21:50;;;;;;;12.73;10.00;;;13.10;99.90;;;;;;4928790;29;20589;-65
2021/05/13 04:24:20;;;;;;;12.35;8.20;;;13.10;99.90;;;;;;4922020;29;20474;-65
2021/05/13 04:26:47;;;;;;;12.17;8.03;;;13.20;99.90;;;;;;4922747;29;20458;-65
2021/05/13 04:29:14;;;;;;;10.27;7.03;;;13.30;99.90;;;;;;4921900;29;20108;-65
2021/05/13 04:31:41;;;;;;;9.73;7.20;;;13.40;99.90;;;;;;4923304;28;20119;-65
2021/05/13 04:34:08;;;;;;;9.88;7.57;;;13.40;99.90;;;;;;4923344;29;20075;-65
2021/05/13 04:36:35;;;;;;;11.55;7.70;;;13.50;99.90;;;;;;4929320;28;20066;-64
2021/05/13 04:39:03;;;;;;;10.82;7.18;;;13.60;99.90;;;;;;4924301;29;20967;-64
2021/05/13 04:41:31;;;;;;;7.50;6.72;;;13.70;99.90;;;;;;4927860;29;20150;-65
2021/05/13 04:43:58;;;;;;;16.42;8.20;;;13.80;99.90;;;;;;4922919;29;20087;-65
2021/05/13 04:46:28;;;;;;;10.27;7.47;;;13.90;99.90;;;;;;4918857;29;20044;-65
2021/05/13 04:49:15;;;;;;;10.15;7.38;;;13.90;99.90;;;;;;4926920;29;20082;-65
2021/05/13 04:51:44;;;;;;;7.93;7.13;;;14.00;99.90;;;;;;4922170;29;20052;-65
2021/05/13 04:54:13;;;;;;;8.83;6.80;;;14.10;99.70;;;;;;4922760;29;20056;-64
2021/05/13 04:56:40;;;;;;;9.80;6.53;;;14.10;99.80;;;;;;4929346;28;20059;-65
2021/05/13 04:59:07;;;;;;;7.95;7.15;;;14.20;98.90;;;;;;4922698;29;20135;-65
2021/05/13 05:01:35;;;;;;;17.45;7.18;;;14.30;99.40;;;;;;4920819;29;20073;-65
2021/05/13 05:04:02;;;;;;;7.45;6.32;;;14.40;98.90;;;;;;4931175;29;20058;-65
2021/05/13 05:06:29;;;;;;;7.53;6.78;;;14.40;98.70;;;;;;4919155;29;20050;-64
2021/05/13 05:08:56;;;;;;;6.57;5.97;;;14.40;98.40;;;;;;4927217;29;20051;-65
2021/05/13 05:11:23;;;;;;;10.70;6.22;;;14.50;98.70;;;;;;4938746;28;20051;-64
2021/05/13 05:13:50;;;;;;;8.50;6.72;;;14.60;97.70;;;;;;4925607;29;20106;-65
2021/05/13 05:16:17;;;;;;;8.55;6.35;;;14.60;97.60;;;;;;4924662;29;20213;-65
2021/05/13 05:18:44;;;;;;;7.43;6.00;;;14.70;98.00;;;;;;4924194;29;20297;-64
2021/05/13 05:21:11;;;;;;;8.00;5.97;;;14.80;97.60;;;;;;4927408;28;20052;-65
2021/05/13 05:23:39;;;;;;;7.00;6.30;;;14.80;98.00;;;;;;4922398;29;20048;-65
2021/05/13 05:26:06;;;;;;;7.85;7.03;;;14.90;97.60;;;;;;4921679;29;20131;-64
2021/05/13 05:28:33;;;;;;;8.55;6.65;;;14.90;97.50;;;;;;4919341;29;26031;-65
2021/05/13 05:31:00;;;;;;;13.07;7.60;;;15.00;97.70;;;;;;4925010;29;20055;-64
2021/05/13 05:33:27;;;;;;;6.40;5.70;;;15.10;97.90;;;;;;4925051;29;20040;-65
2021/05/13 05:35:55;;;;;;;7.25;6.53;;;15.20;97.60;;;;;;4922814;29;20048;-64
2021/05/13 05:38:22;;;;;;;9.35;6.28;;;15.20;97.40;;;;;;4918804;29;20482;-64
2021/05/13 05:40:49;;;;;;;10.52;6.78;;;15.20;97.30;;;;;;4923505;29;20040;-65
2021/05/13 05:43:16;;;;;;;10.07;7.05;;;15.30;97.40;;;;;;4925384;29;20047;-65
2021/05/13 05:45:43;;;;;;;12.23;6.30;;;15.30;97.60;;;;;;4922117;29;20230;-65
2021/05/13 05:48:10;;;;;;;11.07;7.20;;;15.40;97.40;;;;;;4926058;29;20086;-65
2021/05/13 05:50:39;;;;;;;7.70;7.03;;;15.40;97.20;;;;;;4923653;29;20210;-65
2021/05/13 05:53:07;;;;;;;12.75;6.28;;;15.50;97.50;;;;;;4919193;29;20051;-64
2021/05/13 05:55:35;;;;;;;15.18;7.78;;;15.50;96.90;;;;;;4930135;29;20128;-65
2021/05/13 05:58:02;;;;;;;9.45;6.97;;;15.60;97.00;;;;;;4923959;29;20936;-65
2021/05/13 06:00:30;;;;;;;8.88;6.45;;;15.60;96.60;;;;;;4921833;29;20098;-65
2021/05/13 06:02:57;;;;;;;11.43;5.95;;;15.70;96.70;;;;;;4924942;29;20051;-65
2021/05/13 06:05:25;;;;;;;7.15;6.22;;;15.70;96.80;;;;;;4923303;29;20051;-64
2021/05/13 06:08:13;;;;;;;9.41;7.17;;;15.80;96.90;;;;;;4500392;29;10000701;-65
2021/05/13 06:10:40;;;;;;;8.77;6.15;;;16.00;97.00;;;;;;2035165;29;10001835;-65
2021/05/13 06:13:08;;;;;;;9.10;6.28;;;16.00;96.60;;;;;;4921007;29;20044;-65
2021/05/13 06:15:37;;;;;;;8.25;5.57;;;16.10;96.30;;;;;;4926828;29;20079;-65
2021/05/13 06:18:05;;;;;;;7.53;5.93;;;16.20;96.40;;;;;;4922436;29;20102;-65
2021/05/13 06:20:33;;;;;;;8.45;6.40;;;16.30;96.40;;;;;;4918616;29;20502;-65
2021/05/13 06:23:01;;;;;;;9.10;5.80;;;16.40;95.60;;;;;;4922551;29;20083;-65
2021/05/13 06:25:28;;;;;;;9.65;6.78;;;16.50;95.40;;;;;;4925049;29;20047;-65
2021/05/13 06:27:59;;;;;;;9.73;6.50;;;16.60;94.90;;;;;;4922707;29;20672;-65
2021/05/13 06:30:26;;;;;;;6.60;5.63;;;16.60;95.00;;;;;;4928396;29;20051;-65
2021/05/13 06:32:53;;;;;;;6.75;5.80;;;16.70;94.70;;;;;;4928435;28;20098;-65
2021/05/13 06:35:21;;;;;;;6.70;5.50;;;16.80;94.60;;;;;;4923181;29;20123;-65
2021/05/13 06:37:49;;;;;;;9.63;5.35;;;16.90;94.30;;;;;;4919301;29;20072;-65
2021/05/13 06:40:16;;;;;;;7.72;5.75;;;17.00;94.00;;;;;;4920872;29;20055;-65
2021/05/13 06:42:44;;;;;;;6.70;5.55;;;17.10;93.90;;;;;;4922274;29;20639;-65
2021/05/13 06:45:13;;;;;;;8.77;5.40;;;17.20;93.90;;;;;;4924141;29;20044;-65
2021/05/13 06:47:40;;;;;;;6.65;4.82;;;17.20;93.70;;;;;;4924047;29;20071;-65
2021/05/13 06:50:08;;;;;;;5.15;4.65;;;17.30;93.70;;;;;;4905053;29;20054;-65
2021/05/13 06:52:35;;;;;;;5.47;4.93;;;17.40;93.60;;;;;;4923678;29;20538;-65
2021/05/13 06:55:04;;;;;;;9.88;5.80;;;17.50;93.30;;;;;;4926184;29;20597;-65
2021/05/13 06:57:31;;;;;;;8.57;5.10;;;17.60;92.10;;;;;;4925797;29;20047;-65
2021/05/13 06:59:58;;;;;;;7.72;5.10;;;17.60;92.20;;;;;;4924144;29;20059;-65
2021/05/13 07:02:26;;;;;;;7.68;5.47;;;17.70;92.30;;;;;;4915406;29;20496;-65
2021/05/13 07:04:53;;;;;;;9.38;5.10;;;17.80;91.80;;;;;;4918986;29;20103;-65
2021/05/13 07:07:27;;;;;;;8.55;4.28;;;17.90;91.80;;;;;;4924496;28;20569;-65
2021/05/13 07:09:54;;;;;;;7.20;4.13;;;17.90;92.10;;;;;;4918613;29;20051;-65
2021/05/13 07:12:21;;;;;;;7.95;4.10;;;18.00;91.20;;;;;;4921753;29;20099;-65
2021/05/13 07:14:48;;;;;;;6.03;4.18;;;18.20;90.70;;;;;;4920309;29;20450;-64
2021/05/13 07:17:15;;;;;;;4.75;4.30;;;18.20;90.00;;;;;;4920672;29;20103;-65
2021/05/13 07:19:43;;;;;;;5.45;3.72;;;18.30;90.00;;;;;;4928707;29;20067;-65
2021/05/13 07:22:10;;;;;;;4.70;4.28;;;18.40;88.80;;;;;;4920619;29;20451;-65
2021/05/13 07:24:37;;;;;;;4.95;4.25;;;18.50;88.20;;;;;;4917503;29;20585;-65
2021/05/13 07:27:09;;;;;;;5.80;3.80;;;18.60;88.90;;;;;;4922232;29;20047;-65
2021/05/13 07:29:37;;;;;;;7.60;4.40;;;18.80;87.30;;;;;;4919008;29;20054;-65
2021/05/13 07:32:05;;;;;;;7.50;4.20;;;18.90;87.40;;;;;;4923740;29;20054;-65
2021/05/13 07:34:33;;;;;;;9.00;4.30;;;19.00;86.50;;;;;;4925670;29;20058;-65
2021/05/13 07:37:02;;;;;;;5.47;4.38;;;19.00;85.70;;;;;;4929475;29;20118;-65
2021/05/13 07:39:29;;;;;;;9.00;4.05;;;19.20;85.30;;;;;;4926035;29;20107;-65
2021/05/13 07:41:56;;;;;;;6.22;4.00;;;19.20;84.90;;;;;;4926158;29;20510;-65
2021/05/13 07:44:23;;;;;;;5.60;4.40;;;19.40;85.90;;;;;;4925253;28;20119;-65
2021/05/13 07:46:50;;;;;;;7.70;4.38;;;19.40;85.20;;;;;;4934933;28;20107;-65
2021/05/13 07:49:18;;;;;;;11.23;5.03;;;19.60;85.10;;;;;;4922561;29;20103;-65
2021/05/13 07:51:45;;;;;;;5.07;4.53;;;19.70;84.90;;;;;;4926617;29;20048;-65
2021/05/13 07:54:12;;;;;;;8.77;5.22;;;19.80;84.20;;;;;;4927242;29;20055;-65
2021/05/13 07:56:39;;;;;;;9.55;3.95;;;19.90;83.50;;;;;;4923136;29;20405;-65
2021/05/13 07:59:06;;;;;;;3.63;3.33;;;20.00;83.10;;;;;;4922250;29;20044;-65
2021/05/13 08:01:33;;;;;;;6.80;3.45;;;20.10;80.50;;;;;;4928933;29;20062;-65
2021/05/13 08:04:00;;;;;;;14.30;4.22;;;20.20;78.50;;;;;;4922839;29;20056;-65
2021/05/13 08:06:27;;;;;;;7.95;3.17;;;20.20;77.80;;;;;;4926923;29;20052;-65
2021/05/13 08:08:54;;;;;;;4.93;3.42;;;20.30;77.50;;;;;;4924476;29;20040;-65
2021/05/13 08:11:21;;;;;;;6.22;3.80;;;20.40;78.10;;;;;;4923580;29;20044;-65
2021/05/13 08:13:48;;;;;;;8.80;3.03;;;20.50;76.10;;;;;;4926068;29;20047;-65
2021/05/13 08:16:15;;;;;;;7.45;3.00;;;20.50;75.80;;;;;;4922730;29;20056;-65
2021/05/13 08:18:42;;;;;;;3.58;3.25;;;20.60;75.00;;;;;;4929750;29;20051;-65
2021/05/13 08:21:09;;;;;;;5.28;2.80;;;20.80;74.60;;;;;;4923941;28;20111;-65
2021/05/13 08:23:36;;;;;;;3.70;2.40;;;20.90;72.40;;;;;;4924374;29;20052;-65
2021/05/13 08:26:03;;;;;;;5.30;3.00;;;20.90;74.20;;;;;;4934253;29;20126;-65
2021/05/13 08:28:30;;;;;;;8.48;2.70;;;21.00;73.30;;;;;;4928122;28;20039;-65
2021/05/13 08:30:57;;;;;;;3.25;2.55;;;21.10;72.60;;;;;;4925005;29;20035;-65
2021/05/13 08:33:24;;;;;;;6.95;2.35;;;21.20;71.40;;;;;;4920396;29;20036;-65
2021/05/13 08:35:51;;;;;;;2.83;2.38;;;21.20;70.50;;;;;;4924675;29;20358;-65
2021/05/13 08:38:18;;;;;;;8.40;4.43;;;21.30;68.30;;;;;;4918769;29;20054;-65
2021/05/13 08:40:46;;;;;;;4.82;2.03;;;21.30;70.00;;;;;;4926960;29;20146;-65
2021/05/13 08:43:26;;;;;;;3.17;2.97;;;21.40;69.00;;;;;;4920935;29;20051;-65
2021/05/13 08:45:56;;;;;;;6.38;3.30;;;21.40;69.80;;;;;;4926647;28;20514;-65
2021/05/13 08:48:25;;;;;;;3.47;3.17;;;21.50;69.60;;;;;;4929694;28;20052;-65
2021/05/13 08:50:53;;;;;;;4.57;3.67;;;21.50;68.80;;;;;;4923898;29;20047;-65
2021/05/13 08:53:20;;;;;;;5.38;2.53;;;21.50;67.20;;;;;;4927742;29;20103;-65
2021/05/13 08:55:47;;;;;;;6.78;3.47;;;21.60;68.00;;;;;;4926515;29;20040;-65
2021/05/13 08:58:14;;;;;;;3.35;2.13;;;21.70;68.00;;;;;;4927465;28;20071;-65
2021/05/13 09:00:55;;;;;;;4.15;2.92;;;21.80;66.90;;;;;;4923064;29;20107;-65
2021/05/13 09:03:36;;;;;;;1.92;1.83;;;21.90;67.30;;;;;;4928014;29;20043;-65
2021/05/13 09:06:05;;;;;;;2.35;1.70;;;21.90;65.50;;;;;;4920756;29;20044;-65
2021/05/13 09:08:32;;;;;;;5.07;1.60;;;22.00;64.60;;;;;;4919488;29;20062;-65
2021/05/13 09:11:09;;;;;;;5.10;1.98;;;22.10;62.30;;;;;;4928773;29;20043;-65
2021/05/13 09:13:36;;;;;;;2.20;1.85;;;22.20;63.40;;;;;;4920302;29;20052;-65
2021/05/13 09:16:24;;;;;;;3.35;1.85;;;22.20;60.10;;;;;;4927431;29;20072;-65
2021/05/13 09:18:52;;;;;;;4.22;2.25;;;22.20;60.90;;;;;;4923317;28;20765;-65
2021/05/13 09:21:19;;;;;;;2.70;1.75;;;22.30;59.70;;;;;;4919688;29;20072;-65
2021/05/13 09:23:46;;;;;;;4.93;1.70;;;22.40;60.00;;;;;;4927777;29;20459;-65
2021/05/13 09:26:13;;;;;;;1.95;1.35;;;22.40;60.80;;;;;;4922976;28;20072;-66
2021/05/13 09:28:47;;;;;;;2.08;1.83;;;22.50;61.30;;;;;;4923280;29;20115;-65
2021/05/13 09:31:33;;;;;;;;;;;22.50;60.90;;;;;;4924471;29;20055;-65
2021/05/13 09:34:06;;;;;;;2.47;2.15;;;22.60;60.90;;;;;;4922525;29;19970;-65
2021/05/13 09:36:33;;;;;;;1.90;1.80;;;22.60;60.80;;;;;;4918425;29;21969;-65
2021/05/13 09:39:21;;;;;;;3.35;1.77;;;22.60;60.00;;;;;;4925930;29;20111;-65
2021/05/13 09:42:04;;;;;;;2.95;1.55;;;22.70;60.80;;;;;;4922114;29;20048;-65
2021/05/13 09:44:35;;;;;;;3.22;2.28;;;22.80;60.70;;;;;;4926936;29;20040;-65
2021/05/13 09:47:16;;;;;;;1.77;1.67;;;22.90;60.70;;;;;;4923985;29;20497;-65
2021/05/13 09:50:17;;;;;;;5.25;2.22;;;23.00;59.70;;;;;;4929249;29;20055;-65
2021/05/13 09:52:50;;;;;;;2.08;1.67;;;23.10;60.00;;;;;;4910552;29;20445;-65
2021/05/13 09:55:27;;;;;;;2.13;1.65;;;23.10;59.70;;;;;;4923326;29;20154;-65
2021/05/13 09:58:06;;;;;;;1.92;1.73;;;23.10;57.60;;;;;;4923987;29;20111;-65
2021/05/13 10:00:48;;;;;;;3.20;1.75;;;23.10;58.80;;;;;;4918250;29;21458;-65
2021/05/13 10:03:21;;;;;;;3.78;1.90;;;23.20;59.20;;;;;;4924038;29;20044;-65
2021/05/13 10:05:50;;;;;;;1.98;1.88;;;23.20;58.10;;;;;;4922576;29;20170;-65
2021/05/13 10:08:17;;;;;;;2.25;1.50;;;23.20;58.20;;;;;;4935491;28;20087;-65
2021/05/13 10:10:46;;;;;;;3.75;2.53;;;23.30;59.40;;;;;;4931581;29;20052;-65
2021/05/13 10:13:17;;;;;;;6.35;2.55;;;23.40;59.00;;;;;;4920599;29;20048;-65
2021/05/13 10:15:45;;;;;;;4.93;1.75;;;23.40;58.40;;;;;;4927061;29;20048;-65
2021/05/13 10:18:22;;;;;;;4.10;2.03;;;23.50;59.70;;;;;;4919325;28;20076;-65
2021/05/13 10:21:20;;;;;;;1.75;1.65;;;23.60;59.30;;;;;;4927862;28;20461;-65
2021/05/13 10:23:50;;;;;;;2.35;2.10;;;23.70;56.90;;;;;;4926734;29;20406;-65
2021/05/13 10:26:41;;;;;;;1.95;1.83;;;23.80;57.50;;;;;;4920392;29;20090;-65
2021/05/13 10:29:20;;;;;;;2.78;1.80;;;23.80;57.90;;;;;;4922945;28;20147;-65
2021/05/13 10:32:03;;;;;;;7.15;2.20;;;23.80;57.50;;;;;;4924411;29;20147;-65
2021/05/13 10:34:57;;;;;;;1.52;1.40;;;23.60;55.90;;;;;;4920469;29;20055;-65
2021/05/13 10:37:37;;;;;;;3.45;2.38;;;23.50;56.60;;;;;;4924806;29;20052;-65
2021/05/13 10:42:41;;;;;;;2.00;1.80;;;23.50;56.40;;;;;;4915360;29;20050;-65
2021/05/13 10:45:23;;;;;;;2.67;1.50;;;23.50;55.50;;;;;;4923131;28;20506;-65
2021/05/13 10:48:26;;;;;;;3.63;1.70;;;23.50;55.60;;;;;;4925383;29;20048;-65
2021/05/13 10:51:02;;;;;;;3.97;2.20;;;23.60;56.70;;;;;;4919746;29;20046;-65
2021/05/13 10:56:33;;;;;;;1.48;1.30;;;23.80;56.70;;;;;;4927533;28;20202;-65
2021/05/13 10:59:09;;;;;;;5.75;2.30;;;23.80;55.50;;;;;;4921066;29;20103;-65
2021/05/13 11:01:49;;;;;;;2.63;1.58;;;23.80;56.80;;;;;;4921831;29;20055;-65
2021/05/13 11:07:06;;;;;;;2.58;1.10;;;24.00;55.50;;;;;;4927168;29;20420;-65
2021/05/13 11:09:39;;;;;;;2.65;1.35;;;24.00;54.50;;;;;;4923247;29;20040;-65
2021/05/13 11:12:11;;;;;;;3.47;1.30;;;23.90;53.50;;;;;;4921986;29;20047;-65
2021/05/13 11:15:05;;;;;;;3.05;1.30;;;23.90;54.60;;;;;;4922155;29;20063;-65
2021/05/13 11:20:32;;;;;;;3.03;1.42;;;24.10;53.90;;;;;;4924418;28;20489;-66
2021/05/13 11:23:16;;;;;;;2.47;1.33;;;24.20;54.30;;;;;;4929781;29;20038;-65
2021/05/13 11:25:49;;;;;;;1.67;1.17;;;24.30;53.70;;;;;;4925877;29;20043;-65
2021/05/13 11:28:19;;;;;;;2.05;1.85;;;24.30;53.60;;;;;;4923126;29;20040;-65
2021/05/13 11:30:48;;;;;;;2.97;1.40;;;24.30;51.40;;;;;;4921113;29;20044;-65
2021/05/13 11:33:16;;;;;;;1.77;1.10;;;24.30;54.00;;;;;;4926660;29;20056;-65
2021/05/13 11:35:44;;;;;;;1.30;1.13;;;24.30;52.70;;;;;;4921856;29;20108;-65
2021/05/13 11:38:22;;;;;;;1.63;1.38;;;24.30;54.00;;;;;;4926604;29;20102;-65
2021/05/13 11:40:53;;;;;;;5.47;1.52;;;24.30;53.80;;;;;;4922188;29;20086;-65
2021/05/13 11:43:31;;;;;;;3.38;1.65;;;24.40;54.90;;;;;;4923040;29;20062;-65
2021/05/13 11:46:00;;;;;;;2.47;1.42;;;24.50;54.70;;;;;;4929413;29;20119;-65
2021/05/13 11:48:35;;;;;;;2.03;1.38;;;24.70;53.80;;;;;;4922499;29;20138;-65
2021/05/13 11:51:14;;;;;;;4.15;1.70;;;24.70;53.30;;;;;;4922722;29;20418;-65
2021/05/13 11:53:43;;;;;;;1.25;0.88;;;24.40;51.40;;;;;;4925746;29;20063;-65
2021/05/13 11:56:11;;;;;;;1.77;1.67;;;24.30;51.70;;;;;;4924036;29;20051;-65
2021/05/13 11:58:42;;;;;;;1.52;1.10;;;24.20;53.00;;;;;;4920881;28;20044;-65
2021/05/13 12:01:17;;;;;;;7.30;2.10;;;24.10;54.10;;;;;;4925692;28;20049;-65
2021/05/13 12:03:46;;;;;;;2.88;1.00;;;24.00;53.20;;;;;;4920495;29;20080;-65
2021/05/13 12:06:13;;;;;;;2.22;1.60;;;24.00;52.60;;;;;;4924283;29;20095;-65
2021/05/13 12:08:40;;;;;;;3.03;1.38;;;24.00;55.40;;;;;;4925124;29;20055;-65
2021/05/13 12:11:26;;;;;;;3.25;1.20;;;24.00;54.00;;;;;;4921010;29;20770;-65
2021/05/13 12:13:56;;;;;;;2.80;1.40;;;24.30;55.80;;;;;;4925747;29;20115;-65
2021/05/13 12:16:26;;;;;;;1.73;1.33;;;24.30;52.40;;;;;;4925811;28;20106;-65
2021/05/13 12:18:57;;;;;;;;;;;24.30;52.10;;;;;;4928407;29;20051;-65
2021/05/13 12:21:24;;;;;;;2.25;1.65;;;24.40;53.10;;;;;;4926184;29;19938;-65
2021/05/13 12:23:51;;;;;;;1.70;1.35;;;24.60;55.50;;;;;;4926132;29;20059;-65
2021/05/13 12:26:29;;;;;;;2.65;1.67;;;24.70;55.10;;;;;;4927751;29;20565;-65
2021/05/13 12:28:57;;;;;;;5.07;1.77;;;24.90;56.20;;;;;;4921762;28;20051;-65
2021/05/13 12:31:36;;;;;;;2.45;1.58;;;25.00;55.30;;;;;;4924626;29;20298;-66
2021/05/13 12:34:05;;;;;;;1.97;1.53;;;25.20;53.80;;;;;;4927383;29;20048;-65
2021/05/13 12:36:38;;;;;;;3.05;2.10;;;25.40;53.60;;;;;;4922865;29;21783;-65
2021/05/13 12:39:07;;;;;;;3.50;2.45;;;25.50;55.20;;;;;;4924506;29;20099;-65
2021/05/13 12:41:34;;;;;;;2.38;2.22;;;25.60;50.60;;;;;;4927748;29;20055;-65
2021/05/13 12:44:07;;;;;;;3.03;2.72;;;25.80;50.50;;;;;;4922595;29;20064;-65
2021/05/13 12:46:52;;;;;;;2.42;2.22;;;25.80;52.30;;;;;;4930883;28;20074;-65
2021/05/13 12:49:24;;;;;;;2.22;2.03;;;25.70;51.50;;;;;;4935963;28;20642;-66
2021/05/13 12:52:19;;;;;;;2.90;1.98;;;25.70;52.90;;;;;;4925782;29;20052;-65
2021/05/13 12:54:46;;;;;;;3.22;2.70;;;25.90;54.00;;;;;;4927106;29;20077;-66
2021/05/13 12:57:17;;;;;;;3.10;2.60;;;25.80;51.40;;;;;;4923319;29;20051;-66
2021/05/13 12:59:51;;;;;;;5.97;3.35;;;25.70;50.50;;;;;;4926445;29;20454;-65
2021/05/13 13:02:23;;;;;;;2.75;2.55;;;25.50;51.80;;;;;;4927970;29;20051;-65
2021/05/13 13:04:53;;;;;;;4.68;3.25;;;25.60;52.10;;;;;;4926252;29;20052;-65
2021/05/13 13:07:39;;;;;;;2.70;2.45;;;25.70;50.80;;;;;;4926035;29;20810;-66
2021/05/13 13:10:27;;;;;;;2.65;2.30;;;25.80;49.90;;;;;;4921420;29;20486;-65
2021/05/13 13:13:07;;;;;;;2.92;2.72;;;25.70;49.80;;;;;;4922028;29;20051;-66